大阪/伊丹 の空港の天気 - METARとTAF

大阪空港 ( RJOO / ITM ) - 兵庫県伊丹市
飛行場実況気象(Metar)
観測時間12/11 16:00 JST (12/11 07:00 UTC)
風向・風速不定 1m/s
視程10km以上
天気現象弱い雨
少しの雲 雲底高度 910m
全天の4割程度の雲 雲底高度 1830m
全天の8割程度の雲 雲底高度 2740m
気温11℃
湿度50%
気圧1022hPa
METARRJOO 110700Z VRB02KT 9999 -RA FEW030 SCT060 BKN090 11/01 Q1022 RMK 1CU030 3SC060 7AS090 A3019
過去の天気等 Google飛行場航空写真 Wunderground天気予報

過去48時間のMETAR

飛行場予報(TAF)
発表時間: 12/11 14:06 JST (12/11 05:06 UTC)
予報対象時間: 11日15時 JST ~ 12日21時 JST
風向・風速東北東 3m/s
視程10km以上
天気現象弱い雨
少しの雲 雲底高度 460m
全天の4割程度の雲 雲底高度 1370m
11日21時 JST ~ 12日6時 JST に一時的に
視程4000m
天気現象弱い雨 もや
12日3時 JST ~ 12日6時 JST に徐々に
風向・風速北北西 3m/s
12日9時 JST ~ 12日12時 JST に徐々に
風向・風速北北西 8m/s
TAF RJOO 110506Z 1106/1212 07005KT 9999 -RA FEW015 SCT045
TEMPO 1112/1121 4000 -RA BR
BECMG 1118/1121 34005KT
BECMG 1200/1203 34015KT
日本の空港のMETAR・TAFへのリンク

RJTT 東京国際空港
RJAA 新東京国際空港
RJBB 関西国際空港
RJOO 大阪空港
RJGG 中部国際空港
RJCC 新千歳空港
RJFF 福岡空港
ROAH 那覇空港


RJEC 旭川空港
RJCH 函館空港
RJCK 釧路空港
RJCM 女満別空港
RJCB 帯広空港
RJSA 青森空港
RJSS 仙台空港
RJSK 秋田空港
RJSF 福島空港
RJAH 茨城空港
RJSN 新潟空港
RJNT 富山空港
RJNK 小松飛行場
RJNS 静岡空港
RJOH 美保飛行場
RJOC 出雲空港
RJOB 岡山空港
RJOA 広島空港
RJOI 岩国飛行場
RJOT 高松空港
RJOM 松山空港
RJOK 高知空港
RJFR 北九州空港
RJFT 熊本空港
RJFU 長崎空港
RJFS 佐賀空港
RJFO 大分空港
RJFM 宮崎空港
RJFK 鹿児島空港
ROIG 石垣島空港
RJTY 横田飛行場
ROTM 普天間飛行場
RODN 嘉手納飛行場